Flight Track Log - Related Links

Times and Time Zones

All times are in EDT time to prevent confusion due to time zone crossing. See the EJA930 flight status page for this flight to view local times or setup timezone preferences in your user account.

Time Position Orientation Groundspeed Altitude Reporting Facility
EDT Latitude Longitude Course Direction KTS MPH feet Rate Location/Type
Thu 08:16:54 PM 47.5064 -122.2842 147° Southeast 178 205 1,300  Level Seattle Center
Thu 08:17:24 PM 47.4828 -122.2611 147° Southeast 197 227 2,300 1,187 Climbing Seattle Center
Thu 08:18:25 PM 47.4356 -122.2153 147° Southeast 207 238 3,100 923 Climbing Seattle Center
Thu 08:19:21 PM 47.3839 -122.1839 158° South 221 254 4,100 1,576 Climbing Seattle Center
Thu 08:20:23 PM 47.3203 -122.1703 172° South 232 267 6,200 2,683 Climbing Seattle Center
Thu 08:21:24 PM 47.2447 -122.1500 170° South 254 292 9,600 2,754 Climbing Seattle Center
Thu 08:22:25 PM 47.1692 -122.1306 170° South 278 320 11,800 2,213 Climbing Seattle Center
Thu 08:23:26 PM 47.0853 -122.1083 170° South 307 353 14,100 2,049 Climbing Seattle Center
Thu 08:24:28 PM 46.9997 -122.0719 164° South 324 373 16,000 1,756 Climbing Seattle Center
Thu 08:25:29 PM 46.9144 -121.9878 146° Southeast 346 398 17,700 1,328 Climbing Seattle Center
Thu 08:26:30 PM 46.8422 -121.9125 145° Southeast 352 405 18,700 1,082 Climbing Seattle Center
Thu 08:27:31 PM 46.7628 -121.8244 143° Southeast 360 414 19,900 1,328 Climbing Seattle Center
Thu 08:28:32 PM 46.6792 -121.7317 143° Southeast 380 437 21,400 1,610 Climbing Seattle Center
Thu 08:29:34 PM 46.5747 -121.6136 142° Southeast 399 459 23,200 1,610 Climbing Seattle Center
Thu 08:30:35 PM 46.4833 -121.5422 152° Southeast 396 456 24,700 1,377 Climbing Seattle Center
Thu 08:31:36 PM 46.3797 -121.5239 173° South 378 435 26,000 1,230 Climbing Seattle Center
Thu 08:32:37 PM 46.2717 -121.5075 174° South 385 443 27,200 1,230 Climbing Seattle Center
Thu 08:33:38 PM 46.1622 -121.4889 173° South 395 455 28,500 1,220 Climbing Seattle Center
Thu 08:34:40 PM 46.0483 -121.4717 174° South 409 471 29,700 1,220 Climbing Seattle Center
Thu 08:35:41 PM 45.9325 -121.4542 174° South 418 481 31,000 1,279 Climbing Seattle Center
Thu 08:36:42 PM 45.8142 -121.4372 174° South 426 490 32,300 1,525 Climbing Seattle Center
Thu 08:37:43 PM 45.6728 -121.4153 174° South 428 493 34,100 1,918 Climbing Seattle Center
Thu 08:38:44 PM 45.5550 -121.3969 174° South 427 491 36,200 1,854 Climbing Seattle Center
Thu 08:39:46 PM 45.4389 -121.3789 174° South 422 486 37,900 1,463 Climbing Seattle Center
Thu 08:40:47 PM 45.3217 -121.3594 173° South 425 489 39,200 1,525 Climbing Seattle Center
Thu 08:41:48 PM 45.2042 -121.3425 174° South 427 491 41,000 590 Climbing Seattle Center
Thu 08:43:00 PM 45.0556 -121.3337 178° South  Level FlightAware Approximate
Thu 08:43:50 PM 44.9600 -121.3044 178° South 449 517 41,000  Level Seattle Center
Thu 08:44:51 PM 44.8303 -121.2850 174° South 463 533 41,000  Level Seattle Center
Thu 08:45:52 PM 44.6989 -121.2653 174° South 471 542 41,000  Level Seattle Center
Thu 08:46:53 PM 44.5431 -121.2422 174° South 470 541 41,000  Level Seattle Center
Thu 08:47:54 PM 44.4111 -121.2231 174° South 477 549 41,000  Level Seattle Center
Thu 08:48:55 PM 44.2783 -121.2014 173° South 482 555 41,000  Level Seattle Center
Thu 08:49:56 PM 44.1467 -121.1825 174° South 481 554 41,000  Level Seattle Center
Thu 08:50:57 PM 44.0133 -121.1636 174° South 487 560 41,000  Level Seattle Center
Thu 08:51:58 PM 43.8808 -121.1433 174° South 481 554 41,000  Level Seattle Center
Thu 08:52:59 PM 43.7464 -121.1225 174° South 486 559 41,000  Level Seattle Center
Thu 08:54:00 PM 43.6133 -121.1042 174° South 483 556 41,000  Level Seattle Center
Thu 08:55:02 PM 43.4661 -121.0844 174° South 485 558 41,000  Level Seattle Center
Thu 08:56:03 PM 43.3319 -121.0636 174° South 486 559 41,000  Level Seattle Center
Thu 08:57:04 PM 43.1969 -121.0458 175° South 487 560 41,000  Level Seattle Center
Thu 08:58:05 PM 43.0617 -121.0261 174° South 489 563 41,000  Level Seattle Center
Thu 08:59:06 PM 42.9256 -121.0064 174° South 492 566 41,000  Level Seattle Center
Thu 09:00:07 PM 42.7906 -120.9883 174° South 489 563 41,000  Level Seattle Center
Thu 09:01:08 PM 42.6569 -120.9711 175° South 485 558 41,000  Level Seattle Center
Thu 09:02:09 PM 42.5214 -120.9500 173° South 488 562 41,000  Level Seattle Center
Thu 09:03:10 PM 42.3597 -120.9289 174° South 487 560 41,000  Level Seattle Center
Thu 09:04:11 PM 42.2244 -120.9086 174° South 487 560 41,000  Level Seattle Center
Thu 09:05:12 PM 42.0906 -120.8906 174° South 482 555 41,000  Level Seattle Center
Thu 09:06:13 PM 41.9564 -120.8731 174° South 483 556 41,000  Level Seattle Center
Thu 09:07:14 PM 41.8189 -120.8528 174° South 491 565 41,000  Level Seattle Center
Thu 09:08:16 PM 41.6844 -120.8356 175° South 483 556 41,000  Level Seattle Center
Thu 09:09:17 PM 41.5489 -120.8167 174° South 485 558 41,000  Level Seattle Center
Thu 09:10:18 PM 41.4119 -120.7981 174° South 492 566 41,000  Level Seattle Center
Thu 09:11:19 PM 41.2756 -120.7792 174° South 493 567 41,000  Level Seattle Center
Thu 09:12:20 PM 41.1386 -120.7606 174° South 494 568 41,000  Level Seattle Center
Thu 09:13:21 PM 41.0008 -120.7414 174° South 496 571 41,000  Level Seattle Center
Thu 09:14:22 PM 40.8644 -120.7092 170° South 497 572 41,000  Level Seattle Center
Thu 09:15:23 PM 40.7258 -120.6778 170° South 504 580 41,000  Level Seattle Center
Thu 09:16:06 PM 40.6181 -120.6514 169° South 496 571 41,000  Level Oakland Center
Thu 09:17:07 PM 40.4842 -120.6181 169° South 497 572 41,000  Level Oakland Center
Thu 09:18:09 PM 40.3472 -120.5864 170° South 496 571 41,000  Level Oakland Center
Thu 09:19:10 PM 40.2086 -120.5531 170° South 500 575 41,000  Level Oakland Center
Thu 09:20:12 PM 40.0431 -120.5142 170° South 502 578 41,000  Level Oakland Center
Thu 09:21:13 PM 39.9044 -120.4811 170° South 503 579 41,000  Level Oakland Center
Thu 09:22:14 PM 39.7647 -120.4500 170° South 505 581 41,000  Level Oakland Center
Thu 09:23:16 PM 39.6247 -120.4161 169° South 509 586 41,000  Level Oakland Center
Thu 09:24:17 PM 39.4850 -120.3842 170° South 509 586 41,000  Level Oakland Center
Thu 09:25:18 PM 39.3447 -120.3517 170° South 508 585 41,000  Level Oakland Center
Thu 09:26:20 PM 39.2050 -120.3186 170° South 509 586 41,000  Level Oakland Center
Thu 09:27:21 PM 39.0656 -120.2867 170° South 507 583 41,000  Level Oakland Center
Thu 09:28:22 PM 38.9239 -120.2542 170° South 513 590 41,000  Level Oakland Center
Thu 09:29:24 PM 38.7833 -120.2222 170° South 510 587 41,000  Level Oakland Center
Thu 09:30:25 PM 38.6414 -120.1900 170° South 513 590 41,000  Level Oakland Center
Thu 09:31:27 PM 38.5000 -120.1575 170° South 513 590 41,000  Level Oakland Center
Thu 09:32:28 PM 38.3269 -120.1203 170° South 522 601 41,000  Level Oakland Center
Thu 09:33:29 PM 38.1839 -120.0881 170° South 520 598 41,000  Level Oakland Center
Thu 09:34:30 PM 38.0436 -120.0558 170° South 511 588 41,000  Level Oakland Center
Thu 09:35:32 PM 37.9006 -120.0253 170° South 518 596 41,000  Level Oakland Center
Thu 09:36:33 PM 37.7558 -119.9933 170° South 523 602 41,000  Level Oakland Center
Thu 09:37:34 PM 37.6125 -119.9617 170° South 523 602 41,000  Level Oakland Center
Thu 09:38:35 PM 37.4692 -119.9308 170° South 523 602 41,000  Level Oakland Center
Thu 09:39:37 PM 37.3250 -119.8994 170° South 525 604 41,000  Level Oakland Center
Thu 09:40:38 PM 37.1806 -119.8681 170° South 527 606 41,000  Level Oakland Center
Thu 09:41:39 PM 37.0419 -119.8369 170° South 524 603 41,000  Level Oakland Center
Thu 09:42:40 PM 36.8689 -119.7936 169° South 531 611 41,000  Level Oakland Center
Thu 09:43:41 PM 36.7322 -119.7306 160° South 527 606 41,000  Level Oakland Center
Thu 09:44:42 PM 36.5931 -119.6636 159° South 531 611 41,000  Level Oakland Center
Thu 09:45:44 PM 36.4561 -119.5969 159° South 529 609 41,000  Level Oakland Center
Thu 09:46:45 PM 36.3169 -119.5322 159° South 531 611 41,000  Level Oakland Center
Thu 09:47:46 PM 36.1789 -119.4644 158° South 532 612 41,000  Level Oakland Center
Thu 09:48:47 PM 36.0397 -119.3997 159° South 532 612 41,000  Level Oakland Center
Thu 09:49:48 PM 35.9011 -119.3353 159° South 530 610 41,000  Level Oakland Center
Thu 09:50:33 PM 35.7908 -119.2819 159° South 532 612 41,000  Level Los Angeles Center
Thu 09:51:35 PM 35.6489 -119.2167 160° South 535 616 41,000  Level Los Angeles Center
Thu 09:52:36 PM 35.5372 -119.1636 159° South 538 619 41,000  Level Los Angeles Center
Thu 09:53:38 PM 35.3689 -119.0858 159° South 536 617 41,000  Level Los Angeles Center
Thu 09:54:40 PM 35.2297 -119.0217 159° South 534 615 41,000 -194 Level Los Angeles Center
Thu 09:55:42 PM 35.0881 -118.9578 160° South 538 619 40,600 -816 Descending Los Angeles Center
Thu 09:56:45 PM 34.9194 -118.8814 160° South 538 619 39,300 -1,171 Descending Los Angeles Center
Thu 09:57:45 PM 34.7839 -118.8197 160° South 527 606 38,200 -1,033 Descending Los Angeles Center
Thu 09:58:47 PM 34.6492 -118.7578 159° South 520 598 37,200 -581 Descending Los Angeles Center
Thu 09:59:49 PM 34.5139 -118.6961 159° South 519 597 37,000 -98 Descending Los Angeles Center
Thu 10:00:50 PM 34.4047 -118.6469 160° South 522 601 37,000  Level Los Angeles Center
Thu 10:01:52 PM 34.2419 -118.5717 159° South 521 600 37,000  Level Los Angeles Center
Thu 10:02:54 PM 34.1061 -118.5106 160° South 522 601 37,000  Level Los Angeles Center
Thu 10:03:56 PM 33.9447 -118.4311 158° South 521 600 37,000 -1,024 Level Los Angeles Center
Thu 10:04:57 PM 33.8456 -118.3219 138° Southeast 527 606 34,900 -2,341 Descending Los Angeles Center
Thu 10:05:59 PM 33.7561 -118.2017 132° Southeast 533 613 32,200 -3,097 Descending Los Angeles Center
Thu 10:07:01 PM 33.6369 -118.0533 134° Southeast 514 592 28,500 -3,268 Descending Los Angeles Center
Thu 10:08:02 PM 33.5408 -117.9322 134° Southeast 503 579 25,500 -2,267 Descending Los Angeles Center
Thu 10:09:16 PM 33.4569 -117.8267 134° Southeast 446 513 23,400 -2,114 Descending Los Angeles Center
Thu 10:09:47 PM 33.4000 -117.7500 132° Southeast 390 449 21,800 -2,323 Descending Southern California TRACON
Thu 10:10:18 PM 33.3664 -117.7136 138° Southeast 395 455 21,000 -1,806 Descending Los Angeles Center
Thu 10:11:20 PM 33.2947 -117.6231 133° Southeast 380 437 19,000 -2,081 Descending Los Angeles Center
Thu 10:12:22 PM 33.2239 -117.5403 136° Southeast 363 418 16,700 -2,049 Descending Los Angeles Center
Thu 10:13:23 PM 33.1422 -117.4756 146° Southeast 352 405 14,800 -1,756 Descending Los Angeles Center
Thu 10:14:25 PM 33.0469 -117.3975 146° Southeast 348 400 13,100 -1,984 Descending Los Angeles Center
Thu 10:15:27 PM 32.9678 -117.3353 147° Southeast 344 396 10,700 -1,790 Descending Los Angeles Center
Thu 10:16:29 PM 32.8964 -117.2769 146° Southeast 322 371 9,400 -1,366 Descending Los Angeles Center
Thu 10:17:30 PM 32.8392 -117.2131 137° Southeast 292 336 7,900 -1,171 Descending Los Angeles Center
Thu 10:18:32 PM 32.7875 -117.1456 132° Southeast 277 319 7,000 -726 Descending Los Angeles Center
Thu 10:19:34 PM 32.7542 -117.0714 118° Southeast 263 303 6,400 -823 Descending Los Angeles Center
Thu 10:20:36 PM 32.7322 -116.9953 109° East 249 287 5,300 -1,200 Descending Los Angeles Center
Thu 10:21:54 PM 32.6833 -117.0000 185° South 246 283 3,600 -1,292 Descending Southern California TRACON
Thu 10:23:00 PM 32.7000 -117.0667 287° West 177 204 2,200 -1,100 Descending Southern California TRACON
Thu 10:23:54 PM 32.7167 -117.1000 301° West 143 165 1,400 -757 Descending Southern California TRACON
Thu 10:24:43 PM 32.7203 -117.1381 276° West 144 166 900 -655 Descending Los Angeles Center
Thu 10:25:44 PM 32.7306 -117.1781 287° West 132 152 200 -689 Descending Los Angeles Center
Thu 10:27:00 PM 32.7333 -117.1833 275° West  Level FlightAware Approximate
Thu 10:34:00 PM 32.7336 -117.1897 275° West  Level Estimated

Login

Don't have an account? Register now (free) for customized features, flight alerts, and more!